sensor_id;sensor_type;location;lat;lon;timestamp;temperature;humidity
2190;DHT22;1101;51.056;7.262;2023-05-23T00:00:22;16.10;91.00
2190;DHT22;1101;51.056;7.262;2023-05-23T00:02:50;16.10;91.10
2190;DHT22;1101;51.056;7.262;2023-05-23T00:05:18;16.10;91.10
2190;DHT22;1101;51.056;7.262;2023-05-23T00:07:46;16.00;91.10
2190;DHT22;1101;51.056;7.262;2023-05-23T00:10:14;16.00;91.10
2190;DHT22;1101;51.056;7.262;2023-05-23T00:12:42;16.00;91.30
2190;DHT22;1101;51.056;7.262;2023-05-23T00:15:11;16.00;91.10
2190;DHT22;1101;51.056;7.262;2023-05-23T00:17:39;15.90;91.20
2190;DHT22;1101;51.056;7.262;2023-05-23T00:20:07;15.90;91.10
2190;DHT22;1101;51.056;7.262;2023-05-23T00:22:37;15.90;91.10
2190;DHT22;1101;51.056;7.262;2023-05-23T00:25:08;15.90;91.50
2190;DHT22;1101;51.056;7.262;2023-05-23T00:27:36;15.90;91.10
2190;DHT22;1101;51.056;7.262;2023-05-23T00:30:05;15.90;91.10
2190;DHT22;1101;51.056;7.262;2023-05-23T00:32:34;15.90;91.10
2190;DHT22;1101;51.056;7.262;2023-05-23T00:35:02;15.90;91.10
2190;DHT22;1101;51.056;7.262;2023-05-23T00:37:30;15.80;91.10
2190;DHT22;1101;51.056;7.262;2023-05-23T00:39:59;15.80;91.20
2190;DHT22;1101;51.056;7.262;2023-05-23T00:42:27;15.80;91.20
2190;DHT22;1101;51.056;7.262;2023-05-23T00:44:55;15.80;91.20
2190;DHT22;1101;51.056;7.262;2023-05-23T00:47:23;15.80;91.20
2190;DHT22;1101;51.056;7.262;2023-05-23T00:49:52;15.80;91.20
2190;DHT22;1101;51.056;7.262;2023-05-23T00:52:20;15.80;91.70
2190;DHT22;1101;51.056;7.262;2023-05-23T00:54:48;15.80;91.30
2190;DHT22;1101;51.056;7.262;2023-05-23T00:57:16;15.80;91.40
2190;DHT22;1101;51.056;7.262;2023-05-23T00:59:44;15.80;91.40
2190;DHT22;1101;51.056;7.262;2023-05-23T01:02:13;15.80;91.40
2190;DHT22;1101;51.056;7.262;2023-05-23T01:04:41;15.80;91.40
2190;DHT22;1101;51.056;7.262;2023-05-23T01:07:11;15.80;91.40
2190;DHT22;1101;51.056;7.262;2023-05-23T01:09:39;15.80;91.40
2190;DHT22;1101;51.056;7.262;2023-05-23T01:12:16;15.70;91.30
2190;DHT22;1101;51.056;7.262;2023-05-23T01:14:50;15.70;91.40
2190;DHT22;1101;51.056;7.262;2023-05-23T01:17:25;15.70;91.30
2190;DHT22;1101;51.056;7.262;2023-05-23T01:19:59;15.70;91.40
2190;DHT22;1101;51.056;7.262;2023-05-23T01:22:40;15.60;91.30
2190;DHT22;1101;51.056;7.262;2023-05-23T01:25:23;15.60;91.30
2190;DHT22;1101;51.056;7.262;2023-05-23T01:27:58;15.60;91.50
2190;DHT22;1101;51.056;7.262;2023-05-23T01:30:30;15.60;91.40
2190;DHT22;1101;51.056;7.262;2023-05-23T01:32:59;15.60;91.40
2190;DHT22;1101;51.056;7.262;2023-05-23T01:35:27;15.60;91.30
2190;DHT22;1101;51.056;7.262;2023-05-23T01:37:55;15.50;91.30
2190;DHT22;1101;51.056;7.262;2023-05-23T01:40:24;15.50;91.40
2190;DHT22;1101;51.056;7.262;2023-05-23T01:42:54;15.40;91.30
2190;DHT22;1101;51.056;7.262;2023-05-23T01:45:25;15.40;91.30
2190;DHT22;1101;51.056;7.262;2023-05-23T01:47:55;15.40;91.40
2190;DHT22;1101;51.056;7.262;2023-05-23T01:50:23;15.40;91.30
2190;DHT22;1101;51.056;7.262;2023-05-23T01:52:52;15.40;91.30
2190;DHT22;1101;51.056;7.262;2023-05-23T01:55:22;15.40;91.40
2190;DHT22;1101;51.056;7.262;2023-05-23T01:57:54;15.30;91.30
2190;DHT22;1101;51.056;7.262;2023-05-23T02:00:25;15.30;91.30
2190;DHT22;1101;51.056;7.262;2023-05-23T02:02:53;15.30;91.30
2190;DHT22;1101;51.056;7.262;2023-05-23T02:05:21;15.30;91.40
2190;DHT22;1101;51.056;7.262;2023-05-23T02:07:48;15.20;91.30
2190;DHT22;1101;51.056;7.262;2023-05-23T02:10:16;15.20;91.30
2190;DHT22;1101;51.056;7.262;2023-05-23T02:12:44;15.20;91.30
2190;DHT22;1101;51.056;7.262;2023-05-23T02:15:12;15.20;91.30
2190;DHT22;1101;51.056;7.262;2023-05-23T02:17:41;15.20;91.40
2190;DHT22;1101;51.056;7.262;2023-05-23T02:20:09;15.10;91.40
2190;DHT22;1101;51.056;7.262;2023-05-23T02:22:37;15.10;91.40
2190;DHT22;1101;51.056;7.262;2023-05-23T02:25:06;15.00;91.40
2190;DHT22;1101;51.056;7.262;2023-05-23T02:27:34;15.00;91.40
2190;DHT22;1101;51.056;7.262;2023-05-23T02:30:02;14.90;91.40
2190;DHT22;1101;51.056;7.262;2023-05-23T02:32:30;14.90;91.40
2190;DHT22;1101;51.056;7.262;2023-05-23T02:34:59;15.00;91.40
2190;DHT22;1101;51.056;7.262;2023-05-23T02:37:27;15.00;91.40
2190;DHT22;1101;51.056;7.262;2023-05-23T02:39:55;15.00;91.40
2190;DHT22;1101;51.056;7.262;2023-05-23T02:42:23;15.00;91.40
2190;DHT22;1101;51.056;7.262;2023-05-23T02:44:51;15.00;91.40
2190;DHT22;1101;51.056;7.262;2023-05-23T02:47:18;15.00;91.50
2190;DHT22;1101;51.056;7.262;2023-05-23T02:49:46;15.10;91.40
2190;DHT22;1101;51.056;7.262;2023-05-23T02:52:15;15.10;91.40
2190;DHT22;1101;51.056;7.262;2023-05-23T02:54:43;15.00;91.40
2190;DHT22;1101;51.056;7.262;2023-05-23T02:57:11;15.00;91.40
2190;DHT22;1101;51.056;7.262;2023-05-23T02:59:39;15.00;91.40
2190;DHT22;1101;51.056;7.262;2023-05-23T03:02:07;15.00;91.40
2190;DHT22;1101;51.056;7.262;2023-05-23T03:04:35;15.00;91.50
2190;DHT22;1101;51.056;7.262;2023-05-23T03:07:03;15.00;91.40
2190;DHT22;1101;51.056;7.262;2023-05-23T03:09:41;15.00;91.40
2190;DHT22;1101;51.056;7.262;2023-05-23T03:12:11;15.00;91.40
2190;DHT22;1101;51.056;7.262;2023-05-23T03:14:39;15.00;91.40
2190;DHT22;1101;51.056;7.262;2023-05-23T03:17:07;15.10;91.50
2190;DHT22;1101;51.056;7.262;2023-05-23T03:19:35;15.10;91.50
2190;DHT22;1101;51.056;7.262;2023-05-23T03:22:03;15.10;91.50
2190;DHT22;1101;51.056;7.262;2023-05-23T03:24:31;15.10;91.50
2190;DHT22;1101;51.056;7.262;2023-05-23T03:27:00;15.10;91.50
2190;DHT22;1101;51.056;7.262;2023-05-23T03:29:28;15.10;91.50
2190;DHT22;1101;51.056;7.262;2023-05-23T03:31:56;15.10;91.50
2190;DHT22;1101;51.056;7.262;2023-05-23T03:34:24;15.10;91.60
2190;DHT22;1101;51.056;7.262;2023-05-23T03:36:52;15.10;91.50
2190;DHT22;1101;51.056;7.262;2023-05-23T03:39:20;15.10;91.60
2190;DHT22;1101;51.056;7.262;2023-05-23T03:41:50;15.10;91.70
2190;DHT22;1101;51.056;7.262;2023-05-23T03:44:19;15.10;91.70
2190;DHT22;1101;51.056;7.262;2023-05-23T03:46:47;15.00;91.60
2190;DHT22;1101;51.056;7.262;2023-05-23T03:49:15;15.10;91.70
2190;DHT22;1101;51.056;7.262;2023-05-23T03:51:43;15.00;91.70
2190;DHT22;1101;51.056;7.262;2023-05-23T03:54:11;15.10;92.00
2190;DHT22;1101;51.056;7.262;2023-05-23T03:56:39;15.00;91.80
2190;DHT22;1101;51.056;7.262;2023-05-23T03:59:07;14.90;91.80
2190;DHT22;1101;51.056;7.262;2023-05-23T04:01:36;14.90;91.80
2190;DHT22;1101;51.056;7.262;2023-05-23T04:04:05;14.90;91.90
2190;DHT22;1101;51.056;7.262;2023-05-23T04:06:33;14.80;91.80
2190;DHT22;1101;51.056;7.262;2023-05-23T04:09:01;14.80;91.80
2190;DHT22;1101;51.056;7.262;2023-05-23T04:11:31;14.80;91.80
2190;DHT22;1101;51.056;7.262;2023-05-23T04:13:59;14.80;91.90
2190;DHT22;1101;51.056;7.262;2023-05-23T04:16:27;14.80;91.80
2190;DHT22;1101;51.056;7.262;2023-05-23T04:19:00;14.90;91.90
2190;DHT22;1101;51.056;7.262;2023-05-23T04:21:31;14.90;91.90
2190;DHT22;1101;51.056;7.262;2023-05-23T04:24:00;14.90;91.90
2190;DHT22;1101;51.056;7.262;2023-05-23T04:26:28;14.90;91.90
2190;DHT22;1101;51.056;7.262;2023-05-23T04:28:56;14.90;91.90
2190;DHT22;1101;51.056;7.262;2023-05-23T04:31:24;14.90;91.90
2190;DHT22;1101;51.056;7.262;2023-05-23T04:33:52;14.90;91.90
2190;DHT22;1101;51.056;7.262;2023-05-23T04:36:21;14.80;92.00
2190;DHT22;1101;51.056;7.262;2023-05-23T04:38:51;14.80;92.00
2190;DHT22;1101;51.056;7.262;2023-05-23T04:41:19;14.80;92.00
2190;DHT22;1101;51.056;7.262;2023-05-23T04:43:49;14.80;92.00
2190;DHT22;1101;51.056;7.262;2023-05-23T04:46:19;14.80;92.10
2190;DHT22;1101;51.056;7.262;2023-05-23T04:48:52;14.80;92.10
2190;DHT22;1101;51.056;7.262;2023-05-23T04:51:22;14.80;92.10
2190;DHT22;1101;51.056;7.262;2023-05-23T04:53:50;14.70;92.30
2190;DHT22;1101;51.056;7.262;2023-05-23T04:56:18;14.70;92.10
2190;DHT22;1101;51.056;7.262;2023-05-23T04:58:47;14.70;92.20
2190;DHT22;1101;51.056;7.262;2023-05-23T05:01:15;14.70;92.20
2190;DHT22;1101;51.056;7.262;2023-05-23T05:03:43;14.60;92.10
2190;DHT22;1101;51.056;7.262;2023-05-23T05:06:12;14.60;92.40
2190;DHT22;1101;51.056;7.262;2023-05-23T05:08:41;14.60;92.30
2190;DHT22;1101;51.056;7.262;2023-05-23T05:11:09;14.60;92.20
2190;DHT22;1101;51.056;7.262;2023-05-23T05:13:37;14.60;92.70
2190;DHT22;1101;51.056;7.262;2023-05-23T05:16:05;14.50;92.40
2190;DHT22;1101;51.056;7.262;2023-05-23T05:18:34;14.50;92.50
2190;DHT22;1101;51.056;7.262;2023-05-23T05:21:02;14.50;92.50
2190;DHT22;1101;51.056;7.262;2023-05-23T05:23:30;14.40;92.40
2190;DHT22;1101;51.056;7.262;2023-05-23T05:26:00;14.40;92.40
2190;DHT22;1101;51.056;7.262;2023-05-23T05:28:28;14.40;92.50
2190;DHT22;1101;51.056;7.262;2023-05-23T05:30:57;14.40;92.50
2190;DHT22;1101;51.056;7.262;2023-05-23T05:33:24;14.40;92.50
2190;DHT22;1101;51.056;7.262;2023-05-23T05:35:54;14.40;92.50
2190;DHT22;1101;51.056;7.262;2023-05-23T05:38:21;14.50;92.50
2190;DHT22;1101;51.056;7.262;2023-05-23T05:40:49;14.50;92.50
2190;DHT22;1101;51.056;7.262;2023-05-23T05:43:18;14.50;92.60
2190;DHT22;1101;51.056;7.262;2023-05-23T05:45:46;14.60;92.80
2190;DHT22;1101;51.056;7.262;2023-05-23T05:48:14;14.60;92.70
2190;DHT22;1101;51.056;7.262;2023-05-23T05:50:43;14.60;92.60
2190;DHT22;1101;51.056;7.262;2023-05-23T05:53:12;14.60;92.60
2190;DHT22;1101;51.056;7.262;2023-05-23T05:55:39;14.60;92.60
2190;DHT22;1101;51.056;7.262;2023-05-23T05:58:07;14.60;92.60
2190;DHT22;1101;51.056;7.262;2023-05-23T06:00:36;14.50;92.70
2190;DHT22;1101;51.056;7.262;2023-05-23T06:03:08;14.50;92.80
2190;DHT22;1101;51.056;7.262;2023-05-23T06:05:36;14.50;92.70
2190;DHT22;1101;51.056;7.262;2023-05-23T06:08:05;14.50;92.70
2190;DHT22;1101;51.056;7.262;2023-05-23T06:10:33;14.50;92.80
2190;DHT22;1101;51.056;7.262;2023-05-23T06:13:01;14.50;92.80
2190;DHT22;1101;51.056;7.262;2023-05-23T06:15:28;14.50;92.70
2190;DHT22;1101;51.056;7.262;2023-05-23T06:17:58;14.50;92.70
2190;DHT22;1101;51.056;7.262;2023-05-23T06:20:25;14.60;92.80
2190;DHT22;1101;51.056;7.262;2023-05-23T06:22:54;14.60;93.20
2190;DHT22;1101;51.056;7.262;2023-05-23T06:25:22;14.60;92.90
2190;DHT22;1101;51.056;7.262;2023-05-23T06:27:49;14.60;92.90
2190;DHT22;1101;51.056;7.262;2023-05-23T06:30:17;14.60;93.00
2190;DHT22;1101;51.056;7.262;2023-05-23T06:32:45;14.60;92.90
2190;DHT22;1101;51.056;7.262;2023-05-23T06:35:14;14.60;93.00
2190;DHT22;1101;51.056;7.262;2023-05-23T06:37:43;14.60;92.90
2190;DHT22;1101;51.056;7.262;2023-05-23T06:40:11;14.50;92.80
2190;DHT22;1101;51.056;7.262;2023-05-23T06:42:39;14.60;93.10
2190;DHT22;1101;51.056;7.262;2023-05-23T06:45:08;14.50;93.00
2190;DHT22;1101;51.056;7.262;2023-05-23T06:47:36;14.50;93.20
2190;DHT22;1101;51.056;7.262;2023-05-23T06:50:05;14.50;93.00
2190;DHT22;1101;51.056;7.262;2023-05-23T06:52:34;14.60;93.00
2190;DHT22;1101;51.056;7.262;2023-05-23T06:55:02;14.60;93.10
2190;DHT22;1101;51.056;7.262;2023-05-23T06:57:30;14.60;93.30
2190;DHT22;1101;51.056;7.262;2023-05-23T06:59:58;14.60;93.10
2190;DHT22;1101;51.056;7.262;2023-05-23T07:02:26;14.60;93.00
2190;DHT22;1101;51.056;7.262;2023-05-23T07:04:53;14.60;93.00
2190;DHT22;1101;51.056;7.262;2023-05-23T07:07:21;14.60;93.00
2190;DHT22;1101;51.056;7.262;2023-05-23T07:09:50;14.60;93.00
2190;DHT22;1101;51.056;7.262;2023-05-23T07:12:18;14.60;92.90
2190;DHT22;1101;51.056;7.262;2023-05-23T07:14:46;14.60;93.10
2190;DHT22;1101;51.056;7.262;2023-05-23T07:17:14;14.60;93.00
2190;DHT22;1101;51.056;7.262;2023-05-23T07:19:42;14.60;93.00
2190;DHT22;1101;51.056;7.262;2023-05-23T07:22:10;14.60;93.00
2190;DHT22;1101;51.056;7.262;2023-05-23T07:24:37;14.60;93.10
2190;DHT22;1101;51.056;7.262;2023-05-23T07:27:06;14.60;93.00
2190;DHT22;1101;51.056;7.262;2023-05-23T07:29:34;14.60;93.00
2190;DHT22;1101;51.056;7.262;2023-05-23T07:32:02;14.60;92.90
2190;DHT22;1101;51.056;7.262;2023-05-23T07:34:30;14.60;93.10
2190;DHT22;1101;51.056;7.262;2023-05-23T07:36:58;14.50;92.90
2190;DHT22;1101;51.056;7.262;2023-05-23T07:39:25;14.50;93.10
2190;DHT22;1101;51.056;7.262;2023-05-23T07:41:53;14.50;93.00
2190;DHT22;1101;51.056;7.262;2023-05-23T07:44:22;14.50;92.90
2190;DHT22;1101;51.056;7.262;2023-05-23T07:46:51;14.50;92.90
2190;DHT22;1101;51.056;7.262;2023-05-23T07:49:19;14.50;93.10
2190;DHT22;1101;51.056;7.262;2023-05-23T07:51:47;14.50;93.00
2190;DHT22;1101;51.056;7.262;2023-05-23T07:54:14;14.50;92.90
2190;DHT22;1101;51.056;7.262;2023-05-23T07:56:42;14.40;92.80
2190;DHT22;1101;51.056;7.262;2023-05-23T07:59:10;14.40;92.90
2190;DHT22;1101;51.056;7.262;2023-05-23T08:01:40;14.40;92.90
2190;DHT22;1101;51.056;7.262;2023-05-23T08:04:08;14.40;92.90
2190;DHT22;1101;51.056;7.262;2023-05-23T08:06:35;14.40;92.90
2190;DHT22;1101;51.056;7.262;2023-05-23T08:09:08;14.40;92.90
2190;DHT22;1101;51.056;7.262;2023-05-23T08:11:37;14.40;92.90
2190;DHT22;1101;51.056;7.262;2023-05-23T08:14:05;14.40;92.90
2190;DHT22;1101;51.056;7.262;2023-05-23T08:16:34;14.40;92.90
2190;DHT22;1101;51.056;7.262;2023-05-23T08:19:03;14.50;93.00
2190;DHT22;1101;51.056;7.262;2023-05-23T08:21:31;14.50;92.90
2190;DHT22;1101;51.056;7.262;2023-05-23T08:23:59;14.60;92.90
2190;DHT22;1101;51.056;7.262;2023-05-23T08:26:27;14.60;92.80
2190;DHT22;1101;51.056;7.262;2023-05-23T08:29:00;14.70;92.80
2190;DHT22;1101;51.056;7.262;2023-05-23T08:31:29;14.70;92.80
2190;DHT22;1101;51.056;7.262;2023-05-23T08:33:58;14.80;92.80
2190;DHT22;1101;51.056;7.262;2023-05-23T08:36:27;14.80;92.70
2190;DHT22;1101;51.056;7.262;2023-05-23T08:38:55;14.80;92.70
2190;DHT22;1101;51.056;7.262;2023-05-23T08:41:23;14.70;92.60
2190;DHT22;1101;51.056;7.262;2023-05-23T08:43:52;14.70;92.60
2190;DHT22;1101;51.056;7.262;2023-05-23T08:46:22;14.70;92.60
2190;DHT22;1101;51.056;7.262;2023-05-23T08:48:51;14.70;92.60
2190;DHT22;1101;51.056;7.262;2023-05-23T08:51:21;14.60;92.60
2190;DHT22;1101;51.056;7.262;2023-05-23T08:53:51;14.60;92.70
2190;DHT22;1101;51.056;7.262;2023-05-23T08:56:22;14.50;92.60
2190;DHT22;1101;51.056;7.262;2023-05-23T08:58:51;14.50;92.70
2190;DHT22;1101;51.056;7.262;2023-05-23T09:01:21;14.50;92.80
2190;DHT22;1101;51.056;7.262;2023-05-23T09:03:50;14.50;92.90
2190;DHT22;1101;51.056;7.262;2023-05-23T09:06:20;14.50;92.70
2190;DHT22;1101;51.056;7.262;2023-05-23T09:08:49;14.50;92.70
2190;DHT22;1101;51.056;7.262;2023-05-23T09:11:17;14.50;92.70
2190;DHT22;1101;51.056;7.262;2023-05-23T09:13:47;14.60;92.80
2190;DHT22;1101;51.056;7.262;2023-05-23T09:16:16;14.60;92.80
2190;DHT22;1101;51.056;7.262;2023-05-23T09:18:44;14.70;92.80
2190;DHT22;1101;51.056;7.262;2023-05-23T09:21:13;14.80;92.70
2190;DHT22;1101;51.056;7.262;2023-05-23T09:23:41;15.00;92.70
2190;DHT22;1101;51.056;7.262;2023-05-23T09:26:10;15.10;92.60
2190;DHT22;1101;51.056;7.262;2023-05-23T09:28:42;15.10;92.40
2190;DHT22;1101;51.056;7.262;2023-05-23T09:31:09;15.20;92.40
2190;DHT22;1101;51.056;7.262;2023-05-23T09:33:39;15.20;92.30
2190;DHT22;1101;51.056;7.262;2023-05-23T09:36:07;15.20;92.30
2190;DHT22;1101;51.056;7.262;2023-05-23T09:38:37;15.10;92.20
2190;DHT22;1101;51.056;7.262;2023-05-23T09:41:05;15.10;92.20
2190;DHT22;1101;51.056;7.262;2023-05-23T09:43:34;15.10;92.20
2190;DHT22;1101;51.056;7.262;2023-05-23T09:46:06;15.10;92.20
2190;DHT22;1101;51.056;7.262;2023-05-23T09:48:34;15.10;92.40
2190;DHT22;1101;51.056;7.262;2023-05-23T09:51:07;15.10;92.50
2190;DHT22;1101;51.056;7.262;2023-05-23T09:53:35;15.10;92.50
2190;DHT22;1101;51.056;7.262;2023-05-23T09:56:03;15.10;92.40
2190;DHT22;1101;51.056;7.262;2023-05-23T09:58:33;15.00;92.30
2190;DHT22;1101;51.056;7.262;2023-05-23T10:01:02;14.90;92.30
2190;DHT22;1101;51.056;7.262;2023-05-23T10:03:34;14.90;92.40
2190;DHT22;1101;51.056;7.262;2023-05-23T10:06:07;14.80;92.30
2190;DHT22;1101;51.056;7.262;2023-05-23T10:08:39;14.80;92.30
2190;DHT22;1101;51.056;7.262;2023-05-23T10:14:43;14.80;92.30
2190;DHT22;1101;51.056;7.262;2023-05-23T10:17:18;14.90;92.30
2190;DHT22;1101;51.056;7.262;2023-05-23T10:19:52;14.90;92.20
2190;DHT22;1101;51.056;7.262;2023-05-23T10:22:20;14.90;92.20
2190;DHT22;1101;51.056;7.262;2023-05-23T10:24:50;14.90;92.20
2190;DHT22;1101;51.056;7.262;2023-05-23T10:27:18;14.90;92.10
2190;DHT22;1101;51.056;7.262;2023-05-23T10:29:47;14.90;92.20
2190;DHT22;1101;51.056;7.262;2023-05-23T10:32:17;14.80;92.20
2190;DHT22;1101;51.056;7.262;2023-05-23T10:34:53;14.80;92.20
2190;DHT22;1101;51.056;7.262;2023-05-23T10:37:28;14.70;92.20
2190;DHT22;1101;51.056;7.262;2023-05-23T10:39:58;14.70;92.30
2190;DHT22;1101;51.056;7.262;2023-05-23T10:42:40;14.80;92.40
2190;DHT22;1101;51.056;7.262;2023-05-23T10:45:18;14.80;92.30
2190;DHT22;1101;51.056;7.262;2023-05-23T10:47:47;15.00;92.30
2190;DHT22;1101;51.056;7.262;2023-05-23T10:50:29;15.20;92.20
2190;DHT22;1101;51.056;7.262;2023-05-23T10:52:59;15.40;92.10
2190;DHT22;1101;51.056;7.262;2023-05-23T10:55:31;15.60;92.00
2190;DHT22;1101;51.056;7.262;2023-05-23T10:58:13;15.70;91.90
2190;DHT22;1101;51.056;7.262;2023-05-23T11:00:51;15.70;91.60
2190;DHT22;1101;51.056;7.262;2023-05-23T11:03:33;15.60;91.40
2190;DHT22;1101;51.056;7.262;2023-05-23T11:06:02;15.50;91.60
2190;DHT22;1101;51.056;7.262;2023-05-23T11:08:37;15.50;91.50
2190;DHT22;1101;51.056;7.262;2023-05-23T11:11:14;15.50;91.50
2190;DHT22;1101;51.056;7.262;2023-05-23T11:13:54;15.40;91.50
2190;DHT22;1101;51.056;7.262;2023-05-23T11:16:28;15.40;91.50
2190;DHT22;1101;51.056;7.262;2023-05-23T11:19:23;15.40;91.50
2190;DHT22;1101;51.056;7.262;2023-05-23T11:21:56;15.30;91.40
2190;DHT22;1101;51.056;7.262;2023-05-23T11:24:47;15.30;91.30
2190;DHT22;1101;51.056;7.262;2023-05-23T11:27:16;15.20;91.30
2190;DHT22;1101;51.056;7.262;2023-05-23T11:29:59;15.10;91.30
2190;DHT22;1101;51.056;7.262;2023-05-23T11:32:29;15.00;91.30
2190;DHT22;1101;51.056;7.262;2023-05-23T11:34:59;15.00;91.40
2190;DHT22;1101;51.056;7.262;2023-05-23T11:37:27;15.00;91.40
2190;DHT22;1101;51.056;7.262;2023-05-23T11:39:56;15.00;91.40
2190;DHT22;1101;51.056;7.262;2023-05-23T11:42:24;15.10;91.50
2190;DHT22;1101;51.056;7.262;2023-05-23T11:44:52;15.10;91.30
2190;DHT22;1101;51.056;7.262;2023-05-23T11:47:20;15.10;91.40
2190;DHT22;1101;51.056;7.262;2023-05-23T11:49:49;15.10;91.30
2190;DHT22;1101;51.056;7.262;2023-05-23T11:52:17;15.00;91.20
2190;DHT22;1101;51.056;7.262;2023-05-23T11:54:45;14.90;91.30
2190;DHT22;1101;51.056;7.262;2023-05-23T11:57:13;14.90;91.40
2190;DHT22;1101;51.056;7.262;2023-05-23T11:59:41;14.80;91.40
2190;DHT22;1101;51.056;7.262;2023-05-23T12:02:09;14.80;91.60
2190;DHT22;1101;51.056;7.262;2023-05-23T12:04:37;14.80;91.40
2190;DHT22;1101;51.056;7.262;2023-05-23T12:07:06;14.80;91.40
2190;DHT22;1101;51.056;7.262;2023-05-23T12:09:41;14.80;91.30
2190;DHT22;1101;51.056;7.262;2023-05-23T12:12:09;14.80;91.30
2190;DHT22;1101;51.056;7.262;2023-05-23T12:14:38;14.80;91.10
2190;DHT22;1101;51.056;7.262;2023-05-23T12:17:10;14.90;91.30
2190;DHT22;1101;51.056;7.262;2023-05-23T12:19:44;15.00;91.20
2190;DHT22;1101;51.056;7.262;2023-05-23T12:22:13;15.10;91.30
2190;DHT22;1101;51.056;7.262;2023-05-23T12:24:44;15.30;91.10
2190;DHT22;1101;51.056;7.262;2023-05-23T12:27:13;15.40;91.00
2190;DHT22;1101;51.056;7.262;2023-05-23T12:29:49;15.40;90.80
2190;DHT22;1101;51.056;7.262;2023-05-23T12:32:17;15.50;90.70
2190;DHT22;1101;51.056;7.262;2023-05-23T12:34:45;15.50;90.40
2190;DHT22;1101;51.056;7.262;2023-05-23T12:37:15;15.50;90.30
2190;DHT22;1101;51.056;7.262;2023-05-23T12:39:46;15.40;90.30
2190;DHT22;1101;51.056;7.262;2023-05-23T12:42:14;15.40;90.40
2190;DHT22;1101;51.056;7.262;2023-05-23T12:44:41;15.40;90.50
2190;DHT22;1101;51.056;7.262;2023-05-23T12:47:11;15.50;90.50
2190;DHT22;1101;51.056;7.262;2023-05-23T12:49:39;15.60;90.60
2190;DHT22;1101;51.056;7.262;2023-05-23T12:52:07;15.60;90.20
2190;DHT22;1101;51.056;7.262;2023-05-23T12:54:36;15.60;90.20
2190;DHT22;1101;51.056;7.262;2023-05-23T12:57:04;15.60;90.30
2190;DHT22;1101;51.056;7.262;2023-05-23T12:59:31;15.60;90.30
2190;DHT22;1101;51.056;7.262;2023-05-23T13:02:00;15.70;90.20
2190;DHT22;1101;51.056;7.262;2023-05-23T13:04:28;15.70;90.00
2190;DHT22;1101;51.056;7.262;2023-05-23T13:06:58;15.60;90.20
2190;DHT22;1101;51.056;7.262;2023-05-23T13:09:26;15.70;90.20
2190;DHT22;1101;51.056;7.262;2023-05-23T13:11:55;15.70;90.20
2190;DHT22;1101;51.056;7.262;2023-05-23T13:14:24;15.80;90.30
2190;DHT22;1101;51.056;7.262;2023-05-23T13:16:52;15.80;90.30
2190;DHT22;1101;51.056;7.262;2023-05-23T13:19:20;15.90;90.10
2190;DHT22;1101;51.056;7.262;2023-05-23T13:21:48;15.90;90.20
2190;DHT22;1101;51.056;7.262;2023-05-23T13:24:16;16.10;90.20
2190;DHT22;1101;51.056;7.262;2023-05-23T13:26:44;16.30;90.20
2190;DHT22;1101;51.056;7.262;2023-05-23T13:29:13;16.40;90.00
2190;DHT22;1101;51.056;7.262;2023-05-23T13:31:41;16.50;89.40
2190;DHT22;1101;51.056;7.262;2023-05-23T13:34:09;16.50;89.30
2190;DHT22;1101;51.056;7.262;2023-05-23T13:36:36;16.50;87.70
2190;DHT22;1101;51.056;7.262;2023-05-23T13:39:04;16.40;88.50
2190;DHT22;1101;51.056;7.262;2023-05-23T13:41:32;16.40;88.70
2190;DHT22;1101;51.056;7.262;2023-05-23T13:44:00;16.50;89.10
2190;DHT22;1101;51.056;7.262;2023-05-23T13:46:29;16.70;89.20
2190;DHT22;1101;51.056;7.262;2023-05-23T13:48:57;16.90;89.00
2190;DHT22;1101;51.056;7.262;2023-05-23T13:51:25;17.00;88.00
2190;DHT22;1101;51.056;7.262;2023-05-23T13:53:52;17.00;86.80
2190;DHT22;1101;51.056;7.262;2023-05-23T13:56:20;16.80;86.80
2190;DHT22;1101;51.056;7.262;2023-05-23T13:58:49;16.80;86.90
2190;DHT22;1101;51.056;7.262;2023-05-23T14:01:17;16.70;86.60
2190;DHT22;1101;51.056;7.262;2023-05-23T14:03:46;16.60;85.30
2190;DHT22;1101;51.056;7.262;2023-05-23T14:06:14;16.70;87.10
2190;DHT22;1101;51.056;7.262;2023-05-23T14:08:42;16.90;87.80
2190;DHT22;1101;51.056;7.262;2023-05-23T14:11:10;17.20;87.10
2190;DHT22;1101;51.056;7.262;2023-05-23T14:13:38;17.40;86.30
2190;DHT22;1101;51.056;7.262;2023-05-23T14:16:05;17.40;86.10
2190;DHT22;1101;51.056;7.262;2023-05-23T14:18:33;17.40;86.00
2190;DHT22;1101;51.056;7.262;2023-05-23T14:21:03;17.50;86.60
2190;DHT22;1101;51.056;7.262;2023-05-23T14:23:30;17.80;86.80
2190;DHT22;1101;51.056;7.262;2023-05-23T14:25:58;18.00;86.40
2190;DHT22;1101;51.056;7.262;2023-05-23T14:28:26;18.20;86.00
2190;DHT22;1101;51.056;7.262;2023-05-23T14:30:54;18.40;85.40
2190;DHT22;1101;51.056;7.262;2023-05-23T14:33:22;18.40;84.70
2190;DHT22;1101;51.056;7.262;2023-05-23T14:35:50;18.20;83.70
2190;DHT22;1101;51.056;7.262;2023-05-23T14:38:19;18.10;83.80
2190;DHT22;1101;51.056;7.262;2023-05-23T14:40:47;18.00;83.50
2190;DHT22;1101;51.056;7.262;2023-05-23T14:43:15;17.80;83.30
2190;DHT22;1101;51.056;7.262;2023-05-23T14:45:43;17.70;81.70
2190;DHT22;1101;51.056;7.262;2023-05-23T14:48:11;17.60;83.00
2190;DHT22;1101;51.056;7.262;2023-05-23T14:50:39;17.60;82.70
2190;DHT22;1101;51.056;7.262;2023-05-23T14:53:08;17.50;82.90
2190;DHT22;1101;51.056;7.262;2023-05-23T14:55:37;17.40;82.90
2190;DHT22;1101;51.056;7.262;2023-05-23T14:58:05;17.40;82.90
2190;DHT22;1101;51.056;7.262;2023-05-23T15:00:33;17.60;83.90
2190;DHT22;1101;51.056;7.262;2023-05-23T15:03:01;17.70;84.20
2190;DHT22;1101;51.056;7.262;2023-05-23T15:05:29;17.90;84.00
2190;DHT22;1101;51.056;7.262;2023-05-23T15:07:56;18.00;83.10
2190;DHT22;1101;51.056;7.262;2023-05-23T15:10:24;18.10;83.00
2190;DHT22;1101;51.056;7.262;2023-05-23T15:12:53;18.00;82.50
2190;DHT22;1101;51.056;7.262;2023-05-23T15:15:21;17.80;82.10
2190;DHT22;1101;51.056;7.262;2023-05-23T15:17:49;17.80;82.50
2190;DHT22;1101;51.056;7.262;2023-05-23T15:20:18;17.70;82.90
2190;DHT22;1101;51.056;7.262;2023-05-23T15:22:45;17.70;82.30
2190;DHT22;1101;51.056;7.262;2023-05-23T15:25:13;17.70;81.50
2190;DHT22;1101;51.056;7.262;2023-05-23T15:27:41;17.60;82.60
2190;DHT22;1101;51.056;7.262;2023-05-23T15:30:12;17.70;82.80
2190;DHT22;1101;51.056;7.262;2023-05-23T15:32:40;17.70;82.20
2190;DHT22;1101;51.056;7.262;2023-05-23T15:35:08;17.90;83.10
2190;DHT22;1101;51.056;7.262;2023-05-23T15:37:36;18.00;83.30
2190;DHT22;1101;51.056;7.262;2023-05-23T15:40:05;18.20;82.70
2190;DHT22;1101;51.056;7.262;2023-05-23T15:42:32;18.20;82.30
2190;DHT22;1101;51.056;7.262;2023-05-23T15:45:00;18.30;81.60
2190;DHT22;1101;51.056;7.262;2023-05-23T15:47:30;18.20;81.10
2190;DHT22;1101;51.056;7.262;2023-05-23T15:49:58;18.10;80.70
2190;DHT22;1101;51.056;7.262;2023-05-23T15:52:25;18.10;81.00
2190;DHT22;1101;51.056;7.262;2023-05-23T15:54:53;18.00;81.00
2190;DHT22;1101;51.056;7.262;2023-05-23T15:57:22;17.90;79.20
2190;DHT22;1101;51.056;7.262;2023-05-23T15:59:50;17.70;79.60
2190;DHT22;1101;51.056;7.262;2023-05-23T16:02:18;17.60;80.70
2190;DHT22;1101;51.056;7.262;2023-05-23T16:04:47;17.60;80.50
2190;DHT22;1101;51.056;7.262;2023-05-23T16:07:15;17.70;81.40
2190;DHT22;1101;51.056;7.262;2023-05-23T16:09:44;17.90;81.80
2190;DHT22;1101;51.056;7.262;2023-05-23T16:12:12;18.20;81.60
2190;DHT22;1101;51.056;7.262;2023-05-23T16:14:39;18.40;81.50
2190;DHT22;1101;51.056;7.262;2023-05-23T16:17:07;18.60;80.70